createdAt,value
2019-05-29T00:00:07.616Z,10.50
2019-05-29T00:02:35.619Z,10.50
2019-05-29T00:05:03.462Z,10.50
2019-05-29T00:07:31.252Z,10.40
2019-05-29T00:09:59.111Z,10.40
2019-05-29T00:12:26.900Z,10.30
2019-05-29T00:14:54.675Z,10.30
2019-05-29T00:17:22.506Z,10.30
2019-05-29T00:19:50.274Z,10.30
2019-05-29T00:22:18.589Z,10.30
2019-05-29T00:24:46.538Z,10.30
2019-05-29T00:27:15.595Z,10.30
2019-05-29T00:29:43.579Z,10.30
2019-05-29T00:32:12.001Z,10.30
2019-05-29T00:34:41.058Z,10.30
2019-05-29T00:37:08.939Z,10.30
2019-05-29T00:39:36.770Z,10.30
2019-05-29T00:42:04.573Z,10.30
2019-05-29T00:44:34.622Z,10.30
2019-05-29T00:47:01.939Z,10.30
2019-05-29T00:49:29.790Z,10.40
2019-05-29T00:51:57.587Z,10.40
2019-05-29T00:54:25.363Z,10.40
2019-05-29T00:56:53.151Z,10.50
2019-05-29T00:59:20.929Z,10.40
2019-05-29T01:01:48.744Z,10.50
2019-05-29T01:04:17.799Z,10.50
2019-05-29T01:06:45.797Z,10.50
2019-05-29T01:09:14.445Z,10.50
2019-05-29T01:11:42.325Z,10.50
2019-05-29T01:14:11.051Z,10.50
2019-05-29T01:16:38.963Z,10.50
2019-05-29T01:19:24.872Z,10.50
2019-05-29T01:21:52.964Z,10.50
2019-05-29T01:24:20.750Z,10.40
2019-05-29T01:26:48.537Z,10.30
2019-05-29T01:29:16.991Z,10.30
2019-05-29T01:31:44.916Z,10.20
2019-05-29T01:34:13.526Z,10.10
2019-05-29T01:36:41.419Z,10.10
2019-05-29T01:39:09.355Z,10.00
2019-05-29T01:41:37.151Z,10.00
2019-05-29T01:44:04.997Z,9.90
2019-05-29T01:46:32.784Z,9.90
2019-05-29T01:49:00.639Z,9.80
2019-05-29T01:51:28.427Z,9.70
2019-05-29T01:53:56.205Z,9.70
2019-05-29T01:56:24.004Z,9.70
2019-05-29T01:58:51.811Z,9.70
2019-05-29T02:01:19.949Z,9.70
2019-05-29T02:03:47.900Z,9.70
2019-05-29T02:06:15.873Z,9.70
2019-05-29T02:08:43.737Z,9.70
2019-05-29T02:11:11.498Z,9.70
2019-05-29T02:13:39.284Z,9.70
2019-05-29T02:16:07.127Z,9.80
2019-05-29T02:18:34.907Z,9.80
2019-05-29T02:21:02.710Z,9.80
2019-05-29T02:23:30.586Z,9.80
2019-05-29T02:25:58.432Z,9.90
2019-05-29T02:28:26.836Z,9.90
2019-05-29T02:30:54.700Z,9.90
2019-05-29T02:33:24.134Z,9.90
2019-05-29T02:35:51.981Z,10.00
2019-05-29T02:38:20.513Z,10.00
2019-05-29T02:40:48.529Z,10.00
2019-05-29T02:43:16.313Z,10.00
2019-05-29T02:45:54.398Z,10.10
2019-05-29T02:48:13.651Z,10.10
2019-05-29T02:50:41.799Z,10.10
2019-05-29T02:53:09.592Z,10.10
2019-05-29T02:55:37.548Z,10.10
2019-05-29T02:58:05.338Z,10.10
2019-05-29T03:00:47.537Z,10.00
2019-05-29T03:03:15.323Z,10.10
2019-05-29T03:05:43.175Z,10.00
2019-05-29T03:08:11.127Z,10.10
2019-05-29T03:10:39.010Z,10.10
2019-05-29T03:13:06.977Z,10.10
2019-05-29T03:15:34.773Z,10.10
2019-05-29T03:18:02.618Z,10.10
2019-05-29T03:20:31.861Z,10.10
2019-05-29T03:23:00.092Z,10.10
2019-05-29T03:25:28.428Z,10.10
2019-05-29T03:27:56.430Z,10.10
2019-05-29T03:30:26.984Z,10.10
2019-05-29T03:32:53.819Z,10.10
2019-05-29T03:35:21.616Z,10.00
2019-05-29T03:37:49.393Z,10.00
2019-05-29T03:40:17.191Z,9.90
2019-05-29T03:42:44.968Z,9.90
2019-05-29T03:45:12.928Z,9.80
2019-05-29T03:47:40.722Z,9.80
2019-05-29T03:50:08.503Z,9.80
2019-05-29T03:52:36.298Z,9.80
2019-05-29T03:55:04.410Z,9.80
2019-05-29T03:57:33.723Z,9.80
2019-05-29T04:00:01.874Z,9.80
2019-05-29T04:02:31.263Z,9.80
2019-05-29T04:04:59.159Z,9.80
2019-05-29T04:07:26.936Z,9.90
2019-05-29T04:09:54.702Z,9.80
2019-05-29T04:12:22.483Z,9.80
2019-05-29T04:14:50.291Z,9.80
2019-05-29T04:17:19.812Z,9.90
2019-05-29T04:19:47.772Z,9.80
2019-05-29T04:22:17.099Z,9.80
2019-05-29T04:24:45.862Z,9.90
2019-05-29T04:27:15.184Z,9.90
2019-05-29T04:29:43.611Z,9.90
2019-05-29T04:32:11.447Z,10.00
2019-05-29T04:34:40.000Z,10.00
2019-05-29T04:37:07.917Z,10.00
2019-05-29T04:39:36.971Z,10.10
2019-05-29T04:42:05.207Z,10.10
2019-05-29T04:44:33.917Z,10.10
2019-05-29T04:47:10.940Z,10.20
2019-05-29T04:49:33.737Z,10.20
2019-05-29T04:52:01.829Z,10.30
2019-05-29T04:54:31.013Z,10.40
2019-05-29T04:56:58.983Z,10.30
2019-05-29T04:59:26.776Z,10.30
2019-05-29T05:01:54.555Z,10.30
2019-05-29T05:04:22.404Z,10.40
2019-05-29T05:06:50.473Z,10.40
2019-05-29T05:09:18.250Z,10.50
2019-05-29T05:11:46.076Z,10.60
2019-05-29T05:14:13.860Z,10.80
2019-05-29T05:16:41.648Z,10.90
2019-05-29T05:19:09.434Z,10.90
2019-05-29T05:21:38.094Z,10.90
2019-05-29T05:24:06.079Z,11.00
2019-05-29T05:26:34.199Z,11.10
2019-05-29T05:29:02.119Z,11.10
2019-05-29T05:31:30.305Z,11.10
2019-05-29T05:33:58.327Z,11.00
2019-05-29T05:36:26.115Z,11.00
2019-05-29T05:38:54.863Z,11.10
2019-05-29T05:41:22.789Z,11.10
2019-05-29T05:43:50.644Z,11.10
2019-05-29T05:46:18.523Z,11.20
2019-05-29T05:48:46.379Z,11.30
2019-05-29T05:51:14.265Z,11.50
2019-05-29T05:53:42.040Z,11.60
2019-05-29T05:56:09.939Z,11.50
2019-05-29T05:58:37.887Z,11.50
2019-05-29T06:01:05.776Z,11.60
2019-05-29T06:03:33.966Z,11.60
2019-05-29T06:06:01.981Z,11.60
2019-05-29T06:08:29.771Z,11.70
2019-05-29T06:10:57.600Z,11.80
2019-05-29T06:13:25.763Z,11.80
2019-05-29T06:15:53.562Z,11.80
2019-05-29T06:18:22.090Z,11.70
2019-05-29T06:20:50.112Z,11.70
2019-05-29T06:23:17.936Z,11.70
2019-05-29T06:25:45.710Z,11.50
2019-05-29T06:28:13.569Z,11.60
2019-05-29T06:30:43.289Z,11.70
2019-05-29T06:33:11.064Z,11.80
2019-05-29T06:35:39.639Z,11.90
2019-05-29T06:38:07.566Z,12.00
2019-05-29T06:40:36.817Z,12.10
2019-05-29T06:43:06.314Z,12.20
2019-05-29T06:45:35.853Z,12.20
2019-05-29T06:48:04.761Z,12.30
2019-05-29T06:50:32.540Z,12.30
2019-05-29T06:53:00.382Z,12.20
2019-05-29T06:55:28.292Z,12.30
2019-05-29T06:57:56.199Z,12.40
2019-05-29T07:00:35.013Z,12.30
2019-05-29T07:02:53.581Z,12.30
2019-05-29T07:05:21.419Z,12.50
2019-05-29T07:07:49.418Z,12.60
2019-05-29T07:10:17.345Z,12.70
2019-05-29T07:12:46.400Z,12.60
2019-05-29T07:15:14.445Z,12.70
2019-05-29T07:17:42.451Z,12.80
2019-05-29T07:20:10.546Z,12.60
2019-05-29T07:22:38.905Z,12.80
2019-05-29T07:25:07.040Z,12.90
2019-05-29T07:27:35.036Z,13.10
2019-05-29T07:30:02.893Z,13.20
2019-05-29T07:32:30.764Z,13.40
2019-05-29T07:35:03.708Z,13.60
2019-05-29T07:37:28.147Z,13.90
2019-05-29T07:39:56.081Z,13.90
2019-05-29T07:42:24.143Z,14.00
2019-05-29T07:44:51.944Z,13.90
2019-05-29T07:47:19.744Z,13.70
2019-05-29T07:49:49.058Z,13.60
2019-05-29T07:52:17.115Z,13.70
2019-05-29T07:54:45.766Z,13.90
2019-05-29T07:57:13.835Z,14.10
2019-05-29T07:59:42.688Z,14.40
2019-05-29T08:02:10.646Z,14.30
2019-05-29T08:04:38.913Z,14.10
2019-05-29T08:07:26.070Z,13.90
2019-05-29T08:09:53.936Z,13.80
2019-05-29T08:12:21.726Z,13.70
2019-05-29T08:14:50.197Z,13.80
2019-05-29T08:17:18.311Z,14.30
2019-05-29T08:19:59.325Z,14.60
2019-05-29T08:22:33.010Z,14.70
2019-05-29T08:24:46.341Z,14.70
2019-05-29T08:27:14.696Z,14.80
2019-05-29T08:29:42.634Z,14.60
2019-05-29T08:32:10.477Z,14.80
2019-05-29T08:34:38.291Z,14.60
2019-05-29T08:37:07.448Z,14.60
2019-05-29T08:39:37.014Z,14.70
2019-05-29T08:42:21.917Z,14.70
2019-05-29T08:44:34.651Z,14.70
2019-05-29T08:47:10.261Z,14.50
2019-05-29T08:49:32.092Z,14.20
2019-05-29T08:52:11.156Z,14.10
2019-05-29T08:54:29.428Z,14.40
2019-05-29T08:56:57.229Z,14.70
2019-05-29T08:59:25.047Z,15.00
2019-05-29T09:01:54.964Z,15.30
2019-05-29T09:04:22.416Z,15.40
2019-05-29T09:06:51.154Z,15.40
2019-05-29T09:09:19.023Z,15.50
2019-05-29T09:11:47.592Z,15.40
2019-05-29T09:14:15.495Z,15.50
2019-05-29T09:16:43.317Z,15.20
2019-05-29T09:19:12.086Z,15.00
2019-05-29T09:21:40.000Z,15.10
2019-05-29T09:24:07.968Z,15.40
2019-05-29T09:26:35.745Z,15.40
2019-05-29T09:29:03.697Z,15.40
2019-05-29T09:31:32.377Z,15.50
2019-05-29T09:34:00.167Z,15.60
2019-05-29T09:36:28.040Z,15.50
2019-05-29T09:38:56.202Z,15.50
2019-05-29T09:41:25.468Z,15.30
2019-05-29T09:43:58.993Z,15.10
2019-05-29T09:46:23.812Z,15.20
2019-05-29T09:48:51.768Z,15.30
2019-05-29T09:51:21.567Z,15.30
2019-05-29T09:53:49.141Z,15.50
2019-05-29T09:56:16.962Z,15.40
2019-05-29T09:58:44.811Z,15.30
2019-05-29T10:01:22.945Z,15.30
2019-05-29T10:03:42.124Z,15.40
2019-05-29T10:06:09.923Z,15.60
2019-05-29T10:08:37.707Z,15.80
2019-05-29T10:11:10.383Z,16.20
2019-05-29T10:13:35.136Z,16.20
2019-05-29T10:16:02.968Z,16.20
2019-05-29T10:18:32.638Z,15.90
2019-05-29T10:21:01.259Z,15.70
2019-05-29T10:23:29.383Z,15.50
2019-05-29T10:25:58.838Z,15.40
2019-05-29T10:28:26.681Z,15.30
2019-05-29T10:30:54.471Z,15.40
2019-05-29T10:33:22.279Z,15.60
2019-05-29T10:35:53.361Z,15.50
2019-05-29T10:38:19.577Z,15.50
2019-05-29T10:41:00.550Z,15.80
2019-05-29T10:43:33.147Z,16.10
2019-05-29T10:45:48.024Z,16.30
2019-05-29T10:48:15.927Z,16.20
2019-05-29T10:50:45.493Z,16.10
2019-05-29T10:53:13.235Z,15.90
2019-05-29T10:55:41.026Z,15.80
2019-05-29T10:58:08.818Z,15.70
2019-05-29T11:00:38.984Z,16.00
2019-05-29T11:03:06.429Z,16.10
2019-05-29T11:05:34.237Z,16.00
2019-05-29T11:08:02.058Z,16.20
2019-05-29T11:10:29.864Z,16.40
2019-05-29T11:12:57.644Z,16.60
2019-05-29T11:15:25.634Z,16.80
2019-05-29T11:17:53.410Z,16.80
2019-05-29T11:20:21.272Z,17.10
2019-05-29T11:22:49.576Z,17.30
2019-05-29T11:25:24.884Z,17.00
2019-05-29T11:27:48.368Z,16.90
2019-05-29T11:30:16.388Z,16.40
2019-05-29T11:32:47.501Z,16.20
2019-05-29T11:35:14.652Z,16.10
2019-05-29T11:37:42.447Z,16.20
2019-05-29T11:40:10.519Z,16.50
2019-05-29T11:42:38.311Z,16.40
2019-05-29T11:45:06.667Z,16.50
2019-05-29T11:47:34.667Z,16.50
2019-05-29T11:50:16.403Z,16.60
2019-05-29T11:52:42.366Z,16.70
2019-05-29T11:55:04.567Z,16.70
2019-05-29T11:57:31.438Z,16.80
2019-05-29T12:00:07.045Z,16.70
2019-05-29T12:02:29.042Z,16.70
2019-05-29T12:04:58.106Z,16.70
2019-05-29T12:07:26.659Z,16.60
2019-05-29T12:09:55.375Z,16.70
2019-05-29T12:12:23.250Z,17.00
2019-05-29T12:15:00.248Z,17.40
2019-05-29T12:17:20.639Z,17.60
2019-05-29T12:19:48.458Z,17.20
2019-05-29T12:22:16.337Z,16.90
2019-05-29T12:24:44.313Z,16.60
2019-05-29T12:27:12.166Z,16.50
2019-05-29T12:29:39.960Z,16.40
2019-05-29T12:32:10.365Z,16.40
2019-05-29T12:34:45.178Z,16.40
2019-05-29T12:37:07.027Z,16.60
2019-05-29T12:39:35.069Z,16.90
2019-05-29T12:42:03.794Z,17.00
2019-05-29T12:44:31.691Z,17.20
2019-05-29T12:46:59.848Z,17.20
2019-05-29T12:49:27.783Z,17.30
2019-05-29T12:51:55.647Z,17.50
2019-05-29T12:54:23.497Z,17.60
2019-05-29T12:56:51.403Z,17.50
2019-05-29T12:59:19.375Z,17.50
2019-05-29T13:01:47.486Z,17.30
2019-05-29T13:04:15.270Z,17.30
2019-05-29T13:06:43.088Z,17.60
2019-05-29T13:09:10.984Z,17.80
2019-05-29T13:11:38.779Z,17.60
2019-05-29T13:14:06.725Z,17.50
2019-05-29T13:16:34.631Z,17.30
2019-05-29T13:19:03.466Z,17.20
2019-05-29T13:21:31.554Z,17.20
2019-05-29T13:24:02.211Z,17.30
2019-05-29T13:26:28.936Z,17.30
2019-05-29T13:28:57.512Z,17.20
2019-05-29T13:31:25.387Z,17.20
2019-05-29T13:33:53.169Z,17.40
2019-05-29T13:36:21.123Z,17.70
2019-05-29T13:38:49.111Z,18.20
2019-05-29T13:41:17.231Z,18.30
2019-05-29T13:43:45.112Z,18.10
2019-05-29T13:46:12.907Z,18.00
2019-05-29T13:48:40.743Z,17.90
2019-05-29T13:51:08.547Z,18.10
2019-05-29T13:53:36.366Z,17.90
2019-05-29T13:56:05.962Z,17.80
2019-05-29T13:58:33.940Z,17.60
2019-05-29T14:01:02.445Z,17.30
2019-05-29T14:03:30.327Z,17.30
2019-05-29T14:05:58.684Z,17.40
2019-05-29T14:08:26.654Z,17.50
2019-05-29T14:10:54.433Z,17.60
2019-05-29T14:13:22.689Z,17.50
2019-05-29T14:15:50.474Z,17.70
2019-05-29T14:18:18.345Z,17.80
2019-05-29T14:20:46.128Z,17.90
2019-05-29T14:23:13.992Z,17.80
2019-05-29T14:25:41.813Z,17.90
2019-05-29T14:28:09.688Z,18.00
2019-05-29T14:30:37.499Z,18.40
2019-05-29T14:33:06.813Z,18.40
2019-05-29T14:35:34.844Z,18.60
2019-05-29T14:38:05.408Z,18.90
2019-05-29T14:40:32.326Z,19.10
2019-05-29T14:43:01.648Z,19.20
2019-05-29T14:45:29.569Z,19.40
2019-05-29T14:47:57.412Z,19.30
2019-05-29T14:50:25.186Z,19.20
2019-05-29T14:52:53.116Z,19.10
2019-05-29T14:55:21.039Z,19.00
2019-05-29T14:57:48.848Z,19.30
2019-05-29T15:00:24.931Z,19.70
2019-05-29T15:02:46.519Z,20.10
2019-05-29T15:05:15.144Z,20.40
2019-05-29T15:07:43.099Z,20.60
2019-05-29T15:10:22.727Z,20.70
2019-05-29T15:12:40.528Z,20.70
2019-05-29T15:15:11.438Z,20.70
2019-05-29T15:17:39.572Z,20.60
2019-05-29T15:20:07.524Z,20.80
2019-05-29T15:22:35.408Z,20.90
2019-05-29T15:25:12.452Z,21.20
2019-05-29T15:27:33.089Z,21.70
2019-05-29T15:30:01.012Z,22.10
2019-05-29T15:32:28.811Z,22.40
2019-05-29T15:34:56.628Z,22.70
2019-05-29T15:37:24.467Z,23.60
2019-05-29T15:39:52.294Z,24.40
2019-05-29T15:42:20.187Z,24.90
2019-05-29T15:44:47.992Z,25.90
2019-05-29T15:47:16.874Z,26.60
2019-05-29T15:49:44.987Z,27.70
2019-05-29T15:52:13.192Z,28.10
2019-05-29T15:54:41.152Z,28.20
2019-05-29T15:57:09.124Z,29.00
2019-05-29T15:59:37.199Z,28.70
2019-05-29T16:02:05.077Z,29.00
2019-05-29T16:07:00.532Z,29.80
2019-05-29T16:09:28.473Z,30.70
2019-05-29T16:11:56.250Z,31.20
2019-05-29T16:14:24.465Z,31.20
2019-05-29T16:16:52.260Z,31.20
2019-05-29T16:19:20.334Z,31.70
2019-05-29T16:21:48.195Z,32.80
2019-05-29T16:24:16.813Z,33.50
2019-05-29T16:26:44.981Z,33.20
2019-05-29T16:29:12.819Z,32.80
2019-05-29T16:31:40.898Z,32.70
2019-05-29T16:34:08.736Z,33.00
2019-05-29T16:36:36.852Z,33.20
2019-05-29T16:39:06.133Z,33.40
2019-05-29T16:41:34.117Z,33.40
2019-05-29T16:44:01.891Z,33.30
2019-05-29T16:46:30.159Z,33.40
2019-05-29T16:48:58.093Z,33.50
2019-05-29T16:51:28.016Z,33.90
2019-05-29T16:53:56.411Z,33.20
2019-05-29T16:56:24.302Z,32.70
2019-05-29T16:58:52.145Z,33.30
2019-05-29T17:01:21.669Z,32.80
2019-05-29T17:03:49.642Z,32.00
2019-05-29T17:06:17.790Z,31.30
2019-05-29T17:08:45.683Z,30.80
2019-05-29T17:11:14.509Z,30.80
2019-05-29T17:13:42.548Z,31.00
2019-05-29T17:16:10.608Z,31.00
2019-05-29T17:18:38.851Z,30.60
2019-05-29T17:21:06.873Z,30.80
2019-05-29T17:23:34.960Z,30.70
2019-05-29T17:26:10.606Z,30.50
2019-05-29T17:28:32.549Z,29.80
2019-05-29T17:31:02.360Z,28.80
2019-05-29T17:33:30.527Z,28.90
2019-05-29T17:35:58.490Z,28.50
2019-05-29T17:38:26.437Z,28.40
2019-05-29T17:40:54.517Z,28.70
2019-05-29T17:43:25.459Z,28.90
2019-05-29T17:45:52.184Z,29.20
2019-05-29T17:48:20.055Z,29.50
2019-05-29T17:50:48.027Z,28.60
2019-05-29T17:53:16.029Z,28.40
2019-05-29T17:55:46.613Z,27.90
2019-05-29T17:58:13.566Z,27.80
2019-05-29T18:00:41.527Z,27.00
2019-05-29T18:03:09.581Z,26.50
2019-05-29T18:05:37.482Z,26.20
2019-05-29T18:08:05.547Z,26.30
2019-05-29T18:10:33.439Z,26.30
2019-05-29T18:13:01.391Z,25.80
2019-05-29T18:15:29.171Z,25.20
2019-05-29T18:17:57.337Z,24.90
2019-05-29T18:20:25.849Z,24.90
2019-05-29T18:22:54.093Z,24.90
2019-05-29T18:25:21.981Z,24.00
2019-05-29T18:27:50.039Z,23.50
2019-05-29T18:30:18.579Z,23.10
2019-05-29T18:32:46.662Z,21.60
2019-05-29T18:35:14.641Z,20.10
2019-05-29T18:37:42.644Z,19.10
2019-05-29T18:40:12.569Z,18.20
2019-05-29T18:42:40.748Z,17.60
2019-05-29T18:45:20.549Z,17.10
2019-05-29T18:47:38.496Z,16.80
2019-05-29T18:50:06.750Z,16.50
2019-05-29T18:52:34.843Z,16.30
2019-05-29T18:55:02.751Z,16.20
2019-05-29T18:57:30.784Z,16.00
2019-05-29T18:59:58.583Z,15.80
2019-05-29T19:02:27.464Z,15.70
2019-05-29T19:04:55.521Z,15.60
2019-05-29T19:07:23.819Z,15.50
2019-05-29T19:09:51.674Z,15.30
2019-05-29T19:12:19.831Z,15.20
2019-05-29T19:14:47.707Z,15.10
2019-05-29T19:17:15.781Z,15.00
2019-05-29T19:19:43.660Z,15.00
2019-05-29T19:22:11.567Z,14.90
2019-05-29T19:24:39.351Z,14.80
2019-05-29T19:27:07.239Z,14.70
2019-05-29T19:29:35.125Z,14.60
2019-05-29T19:32:03.089Z,14.60
2019-05-29T19:34:31.602Z,14.50
2019-05-29T19:36:59.747Z,14.40
2019-05-29T19:39:28.007Z,14.30
2019-05-29T19:41:55.939Z,14.20
2019-05-29T19:44:24.202Z,14.10
2019-05-29T19:46:53.976Z,14.10
2019-05-29T19:49:21.831Z,14.10
2019-05-29T19:51:49.616Z,14.00
2019-05-29T19:54:17.689Z,13.90
2019-05-29T19:56:45.559Z,13.80
2019-05-29T19:59:13.611Z,13.70
2019-05-29T20:01:41.843Z,13.70
2019-05-29T20:04:09.880Z,13.70
2019-05-29T20:06:37.810Z,13.60
2019-05-29T20:09:06.211Z,13.60
2019-05-29T20:11:34.087Z,13.60
2019-05-29T20:14:01.962Z,13.60
2019-05-29T20:16:30.063Z,13.60
2019-05-29T20:18:58.187Z,13.50
2019-05-29T20:21:26.085Z,13.50
2019-05-29T20:23:54.032Z,13.60
2019-05-29T20:26:21.831Z,13.50
2019-05-29T20:28:49.966Z,13.40
2019-05-29T20:31:17.835Z,13.30
2019-05-29T20:33:45.915Z,13.20
2019-05-29T20:36:13.696Z,13.10
2019-05-29T20:38:41.639Z,13.10
2019-05-29T20:41:09.418Z,13.10
2019-05-29T20:43:37.597Z,13.10
2019-05-29T20:46:05.891Z,13.00
2019-05-29T20:48:34.590Z,13.00
2019-05-29T20:51:02.500Z,13.00
2019-05-29T20:53:31.339Z,12.90
2019-05-29T20:55:59.251Z,12.80
2019-05-29T20:58:27.236Z,12.70
2019-05-29T21:00:55.011Z,12.60
2019-05-29T21:03:22.977Z,12.50
2019-05-29T21:05:50.856Z,12.40
2019-05-29T21:08:18.833Z,12.40
2019-05-29T21:10:46.595Z,12.30
2019-05-29T21:13:14.382Z,12.30
2019-05-29T21:15:42.303Z,12.30
2019-05-29T21:18:10.076Z,12.20
2019-05-29T21:20:38.360Z,12.20
2019-05-29T21:23:06.292Z,12.10
2019-05-29T21:25:34.600Z,12.00
2019-05-29T21:28:03.143Z,12.00
2019-05-29T21:30:30.947Z,11.90
2019-05-29T21:32:58.929Z,11.90
2019-05-29T21:35:26.924Z,11.90
2019-05-29T21:37:54.762Z,12.00
2019-05-29T21:40:22.739Z,12.00
2019-05-29T21:42:50.614Z,12.00
2019-05-29T21:45:18.676Z,12.00
2019-05-29T21:47:47.301Z,12.00
2019-05-29T21:50:15.611Z,12.00
2019-05-29T21:52:43.651Z,11.90
2019-05-29T21:55:11.754Z,11.90
2019-05-29T22:00:10.716Z,11.60
2019-05-29T22:02:39.796Z,11.60
2019-05-29T22:05:08.068Z,11.60
2019-05-29T22:07:35.933Z,11.50
2019-05-29T22:10:04.337Z,11.50
2019-05-29T22:12:32.252Z,11.50
2019-05-29T22:15:01.307Z,11.50
2019-05-29T22:17:29.539Z,11.60
2019-05-29T22:19:57.679Z,11.60
2019-05-29T22:22:25.458Z,11.60
2019-05-29T22:24:53.231Z,11.60
2019-05-29T22:27:21.019Z,11.60
2019-05-29T22:29:48.899Z,11.50
2019-05-29T22:32:16.752Z,11.50
2019-05-29T22:34:44.988Z,11.50
2019-05-29T22:37:12.879Z,11.40
2019-05-29T22:39:40.666Z,11.40
2019-05-29T22:42:08.448Z,11.40
2019-05-29T22:44:36.307Z,11.30
2019-05-29T22:47:04.583Z,11.20
2019-05-29T22:49:32.445Z,11.20
2019-05-29T22:52:00.331Z,11.20
2019-05-29T22:54:28.110Z,11.10
2019-05-29T22:56:55.922Z,11.10
2019-05-29T22:59:31.800Z,11.00
2019-05-29T23:01:54.084Z,10.90
2019-05-29T23:04:22.008Z,10.90
2019-05-29T23:06:49.807Z,10.80
2019-05-29T23:09:17.626Z,10.80
2019-05-29T23:11:45.425Z,10.70
2019-05-29T23:14:13.270Z,10.80
2019-05-29T23:16:41.138Z,10.70
2019-05-29T23:19:08.999Z,10.60
2019-05-29T23:21:36.886Z,10.60
2019-05-29T23:24:04.745Z,10.60
2019-05-29T23:26:32.624Z,10.60
2019-05-29T23:29:00.960Z,10.60
2019-05-29T23:31:29.043Z,10.50
2019-05-29T23:33:56.967Z,10.50
2019-05-29T23:36:25.266Z,10.50
2019-05-29T23:38:53.200Z,10.40
2019-05-29T23:41:21.061Z,10.40
2019-05-29T23:43:49.035Z,10.50
2019-05-29T23:46:16.908Z,10.40
2019-05-29T23:48:44.676Z,10.40
2019-05-29T23:51:12.503Z,10.30
2019-05-29T23:53:40.291Z,10.30
2019-05-29T23:56:08.106Z,10.20
2019-05-29T23:58:35.886Z,10.20
